sensor_id;sensor_type;location;lat;lon;timestamp;P1;durP1;ratioP1;P2;durP2;ratioP2
45642;SDS011;31358;46.008;11.144;2023-06-22T00:02:15;17.67;;;9.10;;
45642;SDS011;31358;46.008;11.144;2023-06-22T00:04:41;15.48;;;9.85;;
45642;SDS011;31358;46.008;11.144;2023-06-22T00:07:07;19.35;;;9.73;;
45642;SDS011;31358;46.008;11.144;2023-06-22T00:09:33;13.38;;;9.68;;
45642;SDS011;31358;46.008;11.144;2023-06-22T00:11:59;21.27;;;9.63;;
45642;SDS011;31358;46.008;11.144;2023-06-22T00:14:25;16.23;;;9.35;;
45642;SDS011;31358;46.008;11.144;2023-06-22T00:16:50;18.63;;;9.05;;
45642;SDS011;31358;46.008;11.144;2023-06-22T00:19:24;17.00;;;9.60;;
45642;SDS011;31358;46.008;11.144;2023-06-22T00:21:50;19.98;;;9.60;;
45642;SDS011;31358;46.008;11.144;2023-06-22T00:24:19;18.17;;;9.77;;
45642;SDS011;31358;46.008;11.144;2023-06-22T00:26:45;14.63;;;9.73;;
45642;SDS011;31358;46.008;11.144;2023-06-22T00:29:12;18.15;;;9.48;;
45642;SDS011;31358;46.008;11.144;2023-06-22T00:31:37;17.08;;;9.77;;
45642;SDS011;31358;46.008;11.144;2023-06-22T00:34:03;22.88;;;10.77;;
45642;SDS011;31358;46.008;11.144;2023-06-22T00:36:28;22.80;;;8.85;;
45642;SDS011;31358;46.008;11.144;2023-06-22T00:38:54;17.45;;;9.07;;
45642;SDS011;31358;46.008;11.144;2023-06-22T00:41:20;16.90;;;9.05;;
45642;SDS011;31358;46.008;11.144;2023-06-22T00:43:45;19.15;;;9.98;;
45642;SDS011;31358;46.008;11.144;2023-06-22T00:46:11;16.60;;;9.65;;
45642;SDS011;31358;46.008;11.144;2023-06-22T00:48:37;17.95;;;9.23;;
45642;SDS011;31358;46.008;11.144;2023-06-22T00:51:05;14.32;;;9.40;;
45642;SDS011;31358;46.008;11.144;2023-06-22T00:53:30;17.83;;;9.68;;
45642;SDS011;31358;46.008;11.144;2023-06-22T00:55:59;21.85;;;11.38;;
45642;SDS011;31358;46.008;11.144;2023-06-22T00:58:25;20.30;;;10.50;;
45642;SDS011;31358;46.008;11.144;2023-06-22T01:00:51;18.15;;;10.30;;
45642;SDS011;31358;46.008;11.144;2023-06-22T01:03:17;21.17;;;10.93;;
45642;SDS011;31358;46.008;11.144;2023-06-22T01:05:43;18.08;;;9.73;;
45642;SDS011;31358;46.008;11.144;2023-06-22T01:11:20;17.52;;;11.20;;
45642;SDS011;31358;46.008;11.144;2023-06-22T01:14:03;17.77;;;10.20;;
45642;SDS011;31358;46.008;11.144;2023-06-22T01:16:43;15.70;;;10.95;;
45642;SDS011;31358;46.008;11.144;2023-06-22T01:19:15;21.63;;;11.35;;
45642;SDS011;31358;46.008;11.144;2023-06-22T01:21:46;19.38;;;11.63;;
45642;SDS011;31358;46.008;11.144;2023-06-22T01:24:49;21.88;;;11.13;;
45642;SDS011;31358;46.008;11.144;2023-06-22T01:27:56;17.13;;;9.30;;
45642;SDS011;31358;46.008;11.144;2023-06-22T01:30:12;12.25;;;9.05;;
45642;SDS011;31358;46.008;11.144;2023-06-22T01:32:40;17.15;;;11.15;;
45642;SDS011;31358;46.008;11.144;2023-06-22T01:35:07;16.42;;;11.52;;
45642;SDS011;31358;46.008;11.144;2023-06-22T01:37:34;19.98;;;11.70;;
45642;SDS011;31358;46.008;11.144;2023-06-22T01:40:02;16.25;;;10.98;;
45642;SDS011;31358;46.008;11.144;2023-06-22T01:42:30;19.13;;;10.93;;
45642;SDS011;31358;46.008;11.144;2023-06-22T01:44:57;20.27;;;9.90;;
45642;SDS011;31358;46.008;11.144;2023-06-22T01:47:24;18.17;;;10.73;;
45642;SDS011;31358;46.008;11.144;2023-06-22T01:49:50;18.48;;;10.68;;
45642;SDS011;31358;46.008;11.144;2023-06-22T01:52:19;18.60;;;11.25;;
45642;SDS011;31358;46.008;11.144;2023-06-22T01:54:48;18.73;;;11.32;;
45642;SDS011;31358;46.008;11.144;2023-06-22T01:57:14;19.23;;;10.45;;
45642;SDS011;31358;46.008;11.144;2023-06-22T01:59:48;19.55;;;10.80;;
45642;SDS011;31358;46.008;11.144;2023-06-22T02:02:16;19.85;;;11.93;;
45642;SDS011;31358;46.008;11.144;2023-06-22T02:04:51;17.23;;;11.38;;
45642;SDS011;31358;46.008;11.144;2023-06-22T02:07:22;17.60;;;10.38;;
45642;SDS011;31358;46.008;11.144;2023-06-22T02:09:51;20.15;;;10.95;;
45642;SDS011;31358;46.008;11.144;2023-06-22T02:12:21;14.30;;;10.75;;
45642;SDS011;31358;46.008;11.144;2023-06-22T02:14:49;16.13;;;10.48;;
45642;SDS011;31358;46.008;11.144;2023-06-22T02:17:17;19.73;;;11.57;;
45642;SDS011;31358;46.008;11.144;2023-06-22T02:19:43;20.40;;;10.88;;
45642;SDS011;31358;46.008;11.144;2023-06-22T02:22:09;21.00;;;11.02;;
45642;SDS011;31358;46.008;11.144;2023-06-22T02:24:34;17.80;;;9.73;;
45642;SDS011;31358;46.008;11.144;2023-06-22T02:27:01;19.60;;;11.05;;
45642;SDS011;31358;46.008;11.144;2023-06-22T02:29:27;17.92;;;11.23;;
45642;SDS011;31358;46.008;11.144;2023-06-22T02:31:54;17.17;;;10.52;;
45642;SDS011;31358;46.008;11.144;2023-06-22T02:34:20;19.02;;;10.60;;
45642;SDS011;31358;46.008;11.144;2023-06-22T02:36:47;17.20;;;10.57;;
45642;SDS011;31358;46.008;11.144;2023-06-22T02:39:20;16.58;;;10.43;;
45642;SDS011;31358;46.008;11.144;2023-06-22T02:41:50;25.90;;;10.95;;
45642;SDS011;31358;46.008;11.144;2023-06-22T02:44:17;16.25;;;10.52;;
45642;SDS011;31358;46.008;11.144;2023-06-22T02:46:43;18.00;;;9.45;;
45642;SDS011;31358;46.008;11.144;2023-06-22T02:49:09;15.95;;;10.27;;
45642;SDS011;31358;46.008;11.144;2023-06-22T02:51:37;17.48;;;10.15;;
45642;SDS011;31358;46.008;11.144;2023-06-22T02:54:04;21.33;;;11.15;;
45642;SDS011;31358;46.008;11.144;2023-06-22T02:56:30;18.95;;;11.38;;
45642;SDS011;31358;46.008;11.144;2023-06-22T02:58:56;18.88;;;10.23;;
45642;SDS011;31358;46.008;11.144;2023-06-22T03:01:26;16.80;;;10.32;;
45642;SDS011;31358;46.008;11.144;2023-06-22T03:04:04;17.55;;;10.63;;
45642;SDS011;31358;46.008;11.144;2023-06-22T03:06:33;25.90;;;11.63;;
45642;SDS011;31358;46.008;11.144;2023-06-22T03:09:00;17.20;;;11.35;;
45642;SDS011;31358;46.008;11.144;2023-06-22T03:11:30;17.48;;;11.38;;
45642;SDS011;31358;46.008;11.144;2023-06-22T03:13:56;19.77;;;10.60;;
45642;SDS011;31358;46.008;11.144;2023-06-22T03:16:22;15.88;;;10.57;;
45642;SDS011;31358;46.008;11.144;2023-06-22T03:18:48;23.40;;;11.55;;
45642;SDS011;31358;46.008;11.144;2023-06-22T03:21:14;15.85;;;11.40;;
45642;SDS011;31358;46.008;11.144;2023-06-22T03:23:40;21.33;;;10.50;;
45642;SDS011;31358;46.008;11.144;2023-06-22T03:26:06;22.65;;;12.00;;
45642;SDS011;31358;46.008;11.144;2023-06-22T03:28:33;19.67;;;11.77;;
45642;SDS011;31358;46.008;11.144;2023-06-22T03:30:59;14.00;;;10.50;;
45642;SDS011;31358;46.008;11.144;2023-06-22T03:33:25;15.32;;;10.23;;
45642;SDS011;31358;46.008;11.144;2023-06-22T03:35:50;17.83;;;11.38;;
45642;SDS011;31358;46.008;11.144;2023-06-22T03:38:16;17.73;;;11.98;;
45642;SDS011;31358;46.008;11.144;2023-06-22T03:40:42;18.23;;;10.05;;
45642;SDS011;31358;46.008;11.144;2023-06-22T03:43:08;17.05;;;11.98;;
45642;SDS011;31358;46.008;11.144;2023-06-22T03:45:34;17.38;;;10.43;;
45642;SDS011;31358;46.008;11.144;2023-06-22T03:48:00;22.02;;;11.40;;
45642;SDS011;31358;46.008;11.144;2023-06-22T03:50:26;18.58;;;11.57;;
45642;SDS011;31358;46.008;11.144;2023-06-22T03:52:52;22.75;;;10.93;;
45642;SDS011;31358;46.008;11.144;2023-06-22T03:55:19;16.80;;;10.85;;
45642;SDS011;31358;46.008;11.144;2023-06-22T03:57:45;22.90;;;11.80;;
45642;SDS011;31358;46.008;11.144;2023-06-22T04:00:11;18.23;;;11.88;;
45642;SDS011;31358;46.008;11.144;2023-06-22T04:02:37;18.40;;;11.15;;
45642;SDS011;31358;46.008;11.144;2023-06-22T04:05:03;18.65;;;9.60;;
45642;SDS011;31358;46.008;11.144;2023-06-22T04:07:29;23.65;;;10.65;;
45642;SDS011;31358;46.008;11.144;2023-06-22T04:09:55;19.63;;;10.65;;
45642;SDS011;31358;46.008;11.144;2023-06-22T04:12:20;16.95;;;10.18;;
45642;SDS011;31358;46.008;11.144;2023-06-22T04:14:46;15.70;;;10.57;;
45642;SDS011;31358;46.008;11.144;2023-06-22T04:17:12;17.95;;;9.48;;
45642;SDS011;31358;46.008;11.144;2023-06-22T04:19:39;17.67;;;10.73;;
45642;SDS011;31358;46.008;11.144;2023-06-22T04:22:05;15.32;;;10.50;;
45642;SDS011;31358;46.008;11.144;2023-06-22T04:24:32;16.20;;;9.82;;
45642;SDS011;31358;46.008;11.144;2023-06-22T04:26:58;18.73;;;10.60;;
45642;SDS011;31358;46.008;11.144;2023-06-22T04:29:27;19.63;;;10.75;;
45642;SDS011;31358;46.008;11.144;2023-06-22T04:31:55;13.60;;;10.77;;
45642;SDS011;31358;46.008;11.144;2023-06-22T04:34:23;17.83;;;11.55;;
45642;SDS011;31358;46.008;11.144;2023-06-22T04:36:51;17.15;;;10.57;;
45642;SDS011;31358;46.008;11.144;2023-06-22T04:39:17;16.85;;;10.57;;
45642;SDS011;31358;46.008;11.144;2023-06-22T04:41:44;21.77;;;10.88;;
45642;SDS011;31358;46.008;11.144;2023-06-22T04:44:14;16.67;;;9.88;;
45642;SDS011;31358;46.008;11.144;2023-06-22T04:46:50;20.48;;;11.55;;
45642;SDS011;31358;46.008;11.144;2023-06-22T04:49:25;16.65;;;10.05;;
45642;SDS011;31358;46.008;11.144;2023-06-22T04:52:00;16.55;;;11.25;;
45642;SDS011;31358;46.008;11.144;2023-06-22T04:54:26;21.60;;;12.00;;
45642;SDS011;31358;46.008;11.144;2023-06-22T04:56:52;18.88;;;10.82;;
45642;SDS011;31358;46.008;11.144;2023-06-22T04:59:24;17.58;;;11.10;;
45642;SDS011;31358;46.008;11.144;2023-06-22T05:01:58;15.25;;;11.88;;
45642;SDS011;31358;46.008;11.144;2023-06-22T05:04:25;15.93;;;10.20;;
45642;SDS011;31358;46.008;11.144;2023-06-22T05:06:53;17.77;;;11.20;;
45642;SDS011;31358;46.008;11.144;2023-06-22T05:09:19;16.85;;;10.35;;
45642;SDS011;31358;46.008;11.144;2023-06-22T05:11:45;17.10;;;11.15;;
45642;SDS011;31358;46.008;11.144;2023-06-22T05:14:12;18.67;;;11.35;;
45642;SDS011;31358;46.008;11.144;2023-06-22T05:16:38;23.10;;;11.00;;
45642;SDS011;31358;46.008;11.144;2023-06-22T05:19:04;18.25;;;11.63;;
45642;SDS011;31358;46.008;11.144;2023-06-22T05:21:30;21.45;;;11.52;;
45642;SDS011;31358;46.008;11.144;2023-06-22T05:23:56;17.55;;;10.65;;
45642;SDS011;31358;46.008;11.144;2023-06-22T05:26:25;13.73;;;10.07;;
45642;SDS011;31358;46.008;11.144;2023-06-22T05:28:52;18.42;;;11.10;;
45642;SDS011;31358;46.008;11.144;2023-06-22T05:31:18;19.45;;;12.48;;
45642;SDS011;31358;46.008;11.144;2023-06-22T05:33:48;19.83;;;11.52;;
45642;SDS011;31358;46.008;11.144;2023-06-22T05:36:16;16.83;;;11.50;;
45642;SDS011;31358;46.008;11.144;2023-06-22T05:38:42;18.50;;;11.57;;
45642;SDS011;31358;46.008;11.144;2023-06-22T05:41:08;20.52;;;11.68;;
45642;SDS011;31358;46.008;11.144;2023-06-22T05:43:33;17.77;;;11.93;;
45642;SDS011;31358;46.008;11.144;2023-06-22T05:46:00;21.92;;;11.20;;
45642;SDS011;31358;46.008;11.144;2023-06-22T05:48:26;18.23;;;11.35;;
45642;SDS011;31358;46.008;11.144;2023-06-22T05:50:52;22.55;;;11.82;;
45642;SDS011;31358;46.008;11.144;2023-06-22T05:53:19;19.98;;;12.57;;
45642;SDS011;31358;46.008;11.144;2023-06-22T05:55:44;17.33;;;12.45;;
45642;SDS011;31358;46.008;11.144;2023-06-22T05:58:10;16.48;;;11.57;;
45642;SDS011;31358;46.008;11.144;2023-06-22T06:00:38;20.77;;;12.30;;
45642;SDS011;31358;46.008;11.144;2023-06-22T06:03:05;26.85;;;13.15;;
45642;SDS011;31358;46.008;11.144;2023-06-22T06:05:32;20.05;;;13.02;;
45642;SDS011;31358;46.008;11.144;2023-06-22T06:08:02;17.88;;;13.25;;
45642;SDS011;31358;46.008;11.144;2023-06-22T06:10:30;19.50;;;12.20;;
45642;SDS011;31358;46.008;11.144;2023-06-22T06:12:57;21.00;;;11.75;;
45642;SDS011;31358;46.008;11.144;2023-06-22T06:15:22;18.05;;;11.57;;
45642;SDS011;31358;46.008;11.144;2023-06-22T06:17:48;18.30;;;11.02;;
45642;SDS011;31358;46.008;11.144;2023-06-22T06:20:19;17.30;;;11.15;;
45642;SDS011;31358;46.008;11.144;2023-06-22T06:22:47;18.88;;;12.00;;
45642;SDS011;31358;46.008;11.144;2023-06-22T06:25:13;18.67;;;12.85;;
45642;SDS011;31358;46.008;11.144;2023-06-22T06:27:45;26.33;;;12.85;;
45642;SDS011;31358;46.008;11.144;2023-06-22T06:30:12;22.77;;;12.60;;
45642;SDS011;31358;46.008;11.144;2023-06-22T06:32:39;16.77;;;10.88;;
45642;SDS011;31358;46.008;11.144;2023-06-22T06:35:06;22.38;;;12.88;;
45642;SDS011;31358;46.008;11.144;2023-06-22T06:37:34;20.00;;;11.70;;
45642;SDS011;31358;46.008;11.144;2023-06-22T06:40:01;21.27;;;12.02;;
45642;SDS011;31358;46.008;11.144;2023-06-22T06:42:30;18.02;;;12.43;;
45642;SDS011;31358;46.008;11.144;2023-06-22T06:44:56;19.30;;;11.60;;
45642;SDS011;31358;46.008;11.144;2023-06-22T06:47:22;54.75;;;13.55;;
45642;SDS011;31358;46.008;11.144;2023-06-22T06:49:47;24.50;;;14.40;;
45642;SDS011;31358;46.008;11.144;2023-06-22T06:52:13;19.75;;;12.88;;
45642;SDS011;31358;46.008;11.144;2023-06-22T06:54:39;19.35;;;12.05;;
45642;SDS011;31358;46.008;11.144;2023-06-22T06:57:04;17.17;;;10.60;;
45642;SDS011;31358;46.008;11.144;2023-06-22T06:59:30;21.77;;;11.38;;
45642;SDS011;31358;46.008;11.144;2023-06-22T07:01:55;18.02;;;9.88;;
45642;SDS011;31358;46.008;11.144;2023-06-22T07:04:21;19.20;;;10.85;;
45642;SDS011;31358;46.008;11.144;2023-06-22T07:06:47;19.27;;;11.60;;
45642;SDS011;31358;46.008;11.144;2023-06-22T07:09:13;20.63;;;11.23;;
45642;SDS011;31358;46.008;11.144;2023-06-22T07:11:38;20.42;;;11.75;;
45642;SDS011;31358;46.008;11.144;2023-06-22T07:14:04;21.00;;;11.75;;
45642;SDS011;31358;46.008;11.144;2023-06-22T07:16:30;20.92;;;11.05;;
45642;SDS011;31358;46.008;11.144;2023-06-22T07:18:56;25.30;;;12.10;;
45642;SDS011;31358;46.008;11.144;2023-06-22T07:21:22;19.25;;;12.35;;
45642;SDS011;31358;46.008;11.144;2023-06-22T07:23:48;19.20;;;11.40;;
45642;SDS011;31358;46.008;11.144;2023-06-22T07:26:13;23.38;;;11.30;;
45642;SDS011;31358;46.008;11.144;2023-06-22T07:28:39;19.77;;;11.57;;
45642;SDS011;31358;46.008;11.144;2023-06-22T07:31:06;15.07;;;10.60;;
45642;SDS011;31358;46.008;11.144;2023-06-22T07:33:31;18.63;;;11.05;;
45642;SDS011;31358;46.008;11.144;2023-06-22T07:35:57;14.75;;;10.05;;
45642;SDS011;31358;46.008;11.144;2023-06-22T07:38:23;17.02;;;9.70;;
45642;SDS011;31358;46.008;11.144;2023-06-22T07:40:49;18.40;;;10.68;;
45642;SDS011;31358;46.008;11.144;2023-06-22T07:43:15;19.52;;;11.00;;
45642;SDS011;31358;46.008;11.144;2023-06-22T07:45:44;24.15;;;10.93;;
45642;SDS011;31358;46.008;11.144;2023-06-22T07:48:17;25.40;;;12.05;;
45642;SDS011;31358;46.008;11.144;2023-06-22T07:50:46;19.67;;;10.88;;
45642;SDS011;31358;46.008;11.144;2023-06-22T07:53:12;21.67;;;12.10;;
45642;SDS011;31358;46.008;11.144;2023-06-22T07:55:38;24.85;;;11.00;;
45642;SDS011;31358;46.008;11.144;2023-06-22T07:58:04;15.57;;;10.95;;
45642;SDS011;31358;46.008;11.144;2023-06-22T08:00:29;15.15;;;8.98;;
45642;SDS011;31358;46.008;11.144;2023-06-22T08:02:55;18.23;;;9.43;;
45642;SDS011;31358;46.008;11.144;2023-06-22T08:05:21;19.73;;;9.13;;
45642;SDS011;31358;46.008;11.144;2023-06-22T08:07:47;27.63;;;11.02;;
45642;SDS011;31358;46.008;11.144;2023-06-22T08:10:12;18.05;;;10.25;;
45642;SDS011;31358;46.008;11.144;2023-06-22T08:12:39;19.40;;;10.10;;
45642;SDS011;31358;46.008;11.144;2023-06-22T08:15:05;19.15;;;10.75;;
45642;SDS011;31358;46.008;11.144;2023-06-22T08:17:32;22.25;;;9.73;;
45642;SDS011;31358;46.008;11.144;2023-06-22T08:19:58;23.65;;;10.43;;
45642;SDS011;31358;46.008;11.144;2023-06-22T08:22:24;20.20;;;10.32;;
45642;SDS011;31358;46.008;11.144;2023-06-22T08:24:50;23.65;;;10.48;;
45642;SDS011;31358;46.008;11.144;2023-06-22T08:27:15;23.20;;;10.65;;
45642;SDS011;31358;46.008;11.144;2023-06-22T08:29:43;18.48;;;10.15;;
45642;SDS011;31358;46.008;11.144;2023-06-22T08:32:10;20.95;;;9.68;;
45642;SDS011;31358;46.008;11.144;2023-06-22T08:34:37;20.20;;;11.32;;
45642;SDS011;31358;46.008;11.144;2023-06-22T08:37:06;19.25;;;10.63;;
45642;SDS011;31358;46.008;11.144;2023-06-22T08:39:35;22.00;;;9.68;;
45642;SDS011;31358;46.008;11.144;2023-06-22T08:42:01;20.88;;;10.52;;
45642;SDS011;31358;46.008;11.144;2023-06-22T08:44:27;26.58;;;11.98;;
45642;SDS011;31358;46.008;11.144;2023-06-22T08:46:53;25.92;;;10.88;;
45642;SDS011;31358;46.008;11.144;2023-06-22T08:49:18;20.80;;;11.80;;
45642;SDS011;31358;46.008;11.144;2023-06-22T08:51:44;20.23;;;11.00;;
45642;SDS011;31358;46.008;11.144;2023-06-22T08:54:10;19.50;;;10.77;;
45642;SDS011;31358;46.008;11.144;2023-06-22T08:56:36;26.25;;;11.98;;
45642;SDS011;31358;46.008;11.144;2023-06-22T08:59:02;21.17;;;11.10;;
45642;SDS011;31358;46.008;11.144;2023-06-22T09:01:29;22.65;;;10.10;;
45642;SDS011;31358;46.008;11.144;2023-06-22T09:03:55;20.27;;;11.00;;
45642;SDS011;31358;46.008;11.144;2023-06-22T09:06:22;21.98;;;10.75;;
45642;SDS011;31358;46.008;11.144;2023-06-22T09:08:49;15.10;;;10.25;;
45642;SDS011;31358;46.008;11.144;2023-06-22T09:11:15;27.30;;;10.65;;
45642;SDS011;31358;46.008;11.144;2023-06-22T09:13:41;21.63;;;11.35;;
45642;SDS011;31358;46.008;11.144;2023-06-22T09:16:06;18.70;;;10.20;;
45642;SDS011;31358;46.008;11.144;2023-06-22T09:18:33;19.67;;;11.82;;
45642;SDS011;31358;46.008;11.144;2023-06-22T09:20:59;21.27;;;10.85;;
45642;SDS011;31358;46.008;11.144;2023-06-22T09:23:25;14.82;;;10.40;;
45642;SDS011;31358;46.008;11.144;2023-06-22T09:25:50;15.10;;;10.27;;
45642;SDS011;31358;46.008;11.144;2023-06-22T09:28:16;22.08;;;10.75;;
45642;SDS011;31358;46.008;11.144;2023-06-22T09:30:45;20.42;;;10.65;;
45642;SDS011;31358;46.008;11.144;2023-06-22T09:33:11;23.85;;;11.25;;
45642;SDS011;31358;46.008;11.144;2023-06-22T09:35:36;21.15;;;10.73;;
45642;SDS011;31358;46.008;11.144;2023-06-22T09:38:02;18.60;;;10.80;;
45642;SDS011;31358;46.008;11.144;2023-06-22T09:40:28;19.60;;;11.02;;
45642;SDS011;31358;46.008;11.144;2023-06-22T09:42:53;26.27;;;9.73;;
45642;SDS011;31358;46.008;11.144;2023-06-22T09:45:19;19.90;;;10.63;;
45642;SDS011;31358;46.008;11.144;2023-06-22T09:47:45;22.05;;;10.35;;
45642;SDS011;31358;46.008;11.144;2023-06-22T09:50:10;19.80;;;9.85;;
45642;SDS011;31358;46.008;11.144;2023-06-22T09:52:36;21.10;;;12.23;;
45642;SDS011;31358;46.008;11.144;2023-06-22T09:55:02;22.30;;;10.52;;
45642;SDS011;31358;46.008;11.144;2023-06-22T09:57:28;22.77;;;10.35;;
45642;SDS011;31358;46.008;11.144;2023-06-22T09:59:55;20.92;;;10.18;;
45642;SDS011;31358;46.008;11.144;2023-06-22T10:02:20;19.27;;;11.50;;
45642;SDS011;31358;46.008;11.144;2023-06-22T10:04:47;19.83;;;9.88;;
45642;SDS011;31358;46.008;11.144;2023-06-22T10:07:13;20.90;;;11.45;;
45642;SDS011;31358;46.008;11.144;2023-06-22T10:09:39;27.58;;;12.18;;
45642;SDS011;31358;46.008;11.144;2023-06-22T10:12:05;22.10;;;11.07;;
45642;SDS011;31358;46.008;11.144;2023-06-22T10:14:30;19.70;;;10.57;;
45642;SDS011;31358;46.008;11.144;2023-06-22T10:16:56;18.38;;;10.50;;
45642;SDS011;31358;46.008;11.144;2023-06-22T10:19:22;21.27;;;10.77;;
45642;SDS011;31358;46.008;11.144;2023-06-22T10:21:48;19.95;;;9.75;;
45642;SDS011;31358;46.008;11.144;2023-06-22T10:24:13;18.17;;;10.85;;
45642;SDS011;31358;46.008;11.144;2023-06-22T10:26:39;20.67;;;10.40;;
45642;SDS011;31358;46.008;11.144;2023-06-22T10:29:05;18.27;;;11.52;;
45642;SDS011;31358;46.008;11.144;2023-06-22T10:31:30;19.55;;;10.43;;
45642;SDS011;31358;46.008;11.144;2023-06-22T10:33:56;24.55;;;10.75;;
45642;SDS011;31358;46.008;11.144;2023-06-22T10:36:22;19.08;;;10.27;;
45642;SDS011;31358;46.008;11.144;2023-06-22T10:38:48;16.48;;;10.40;;
45642;SDS011;31358;46.008;11.144;2023-06-22T10:41:14;17.08;;;10.68;;
45642;SDS011;31358;46.008;11.144;2023-06-22T10:43:41;17.95;;;9.95;;
45642;SDS011;31358;46.008;11.144;2023-06-22T10:46:06;22.05;;;13.05;;
45642;SDS011;31358;46.008;11.144;2023-06-22T10:48:32;27.08;;;12.05;;
45642;SDS011;31358;46.008;11.144;2023-06-22T10:50:58;20.60;;;10.07;;
45642;SDS011;31358;46.008;11.144;2023-06-22T10:53:24;17.13;;;10.82;;
45642;SDS011;31358;46.008;11.144;2023-06-22T10:55:50;16.83;;;11.10;;
45642;SDS011;31358;46.008;11.144;2023-06-22T10:58:17;19.17;;;11.27;;
45642;SDS011;31358;46.008;11.144;2023-06-22T11:00:44;22.33;;;10.98;;
45642;SDS011;31358;46.008;11.144;2023-06-22T11:03:10;18.95;;;10.80;;
45642;SDS011;31358;46.008;11.144;2023-06-22T11:05:35;26.60;;;11.70;;
45642;SDS011;31358;46.008;11.144;2023-06-22T11:08:01;20.08;;;11.30;;
45642;SDS011;31358;46.008;11.144;2023-06-22T11:10:27;31.02;;;15.32;;
45642;SDS011;31358;46.008;11.144;2023-06-22T11:12:53;21.33;;;11.40;;
45642;SDS011;31358;46.008;11.144;2023-06-22T11:15:19;19.80;;;11.02;;
45642;SDS011;31358;46.008;11.144;2023-06-22T11:17:44;30.23;;;14.85;;
45642;SDS011;31358;46.008;11.144;2023-06-22T11:20:10;20.05;;;11.02;;
45642;SDS011;31358;46.008;11.144;2023-06-22T11:22:40;18.77;;;11.10;;
45642;SDS011;31358;46.008;11.144;2023-06-22T11:25:06;27.48;;;9.98;;
45642;SDS011;31358;46.008;11.144;2023-06-22T11:27:32;23.20;;;11.43;;
45642;SDS011;31358;46.008;11.144;2023-06-22T11:29:58;20.73;;;11.60;;
45642;SDS011;31358;46.008;11.144;2023-06-22T11:32:24;20.67;;;9.52;;
45642;SDS011;31358;46.008;11.144;2023-06-22T11:34:49;16.58;;;10.15;;
45642;SDS011;31358;46.008;11.144;2023-06-22T11:37:15;23.45;;;9.63;;
45642;SDS011;31358;46.008;11.144;2023-06-22T11:39:41;18.92;;;10.27;;
45642;SDS011;31358;46.008;11.144;2023-06-22T11:42:07;24.88;;;10.25;;
45642;SDS011;31358;46.008;11.144;2023-06-22T11:44:36;17.67;;;10.45;;
45642;SDS011;31358;46.008;11.144;2023-06-22T11:47:02;22.08;;;10.25;;
45642;SDS011;31358;46.008;11.144;2023-06-22T11:49:29;23.65;;;10.80;;
45642;SDS011;31358;46.008;11.144;2023-06-22T11:51:55;19.13;;;11.57;;
45642;SDS011;31358;46.008;11.144;2023-06-22T11:54:21;17.13;;;9.93;;
45642;SDS011;31358;46.008;11.144;2023-06-22T11:56:47;22.35;;;10.02;;
45642;SDS011;31358;46.008;11.144;2023-06-22T11:59:12;22.08;;;10.30;;
45642;SDS011;31358;46.008;11.144;2023-06-22T12:01:38;21.67;;;10.10;;
45642;SDS011;31358;46.008;11.144;2023-06-22T12:04:04;19.10;;;10.18;;
45642;SDS011;31358;46.008;11.144;2023-06-22T12:06:35;23.55;;;10.30;;
45642;SDS011;31358;46.008;11.144;2023-06-22T12:09:03;21.07;;;11.67;;
45642;SDS011;31358;46.008;11.144;2023-06-22T12:11:30;27.90;;;10.98;;
45642;SDS011;31358;46.008;11.144;2023-06-22T12:13:55;22.02;;;9.70;;
45642;SDS011;31358;46.008;11.144;2023-06-22T12:16:21;25.27;;;10.85;;
45642;SDS011;31358;46.008;11.144;2023-06-22T12:18:47;19.45;;;10.20;;
45642;SDS011;31358;46.008;11.144;2023-06-22T12:21:13;17.77;;;9.93;;
45642;SDS011;31358;46.008;11.144;2023-06-22T12:23:39;17.65;;;9.88;;
45642;SDS011;31358;46.008;11.144;2023-06-22T12:26:05;22.02;;;10.20;;
45642;SDS011;31358;46.008;11.144;2023-06-22T12:28:31;25.55;;;9.93;;
45642;SDS011;31358;46.008;11.144;2023-06-22T12:30:56;13.88;;;9.02;;
45642;SDS011;31358;46.008;11.144;2023-06-22T12:33:22;15.45;;;8.30;;
45642;SDS011;31358;46.008;11.144;2023-06-22T12:35:47;22.83;;;9.38;;
45642;SDS011;31358;46.008;11.144;2023-06-22T12:38:14;18.85;;;8.43;;
45642;SDS011;31358;46.008;11.144;2023-06-22T12:40:39;20.83;;;7.35;;
45642;SDS011;31358;46.008;11.144;2023-06-22T12:43:05;15.00;;;7.72;;
45642;SDS011;31358;46.008;11.144;2023-06-22T12:45:32;21.55;;;7.22;;
45642;SDS011;31358;46.008;11.144;2023-06-22T12:47:59;23.85;;;7.43;;
45642;SDS011;31358;46.008;11.144;2023-06-22T12:50:25;19.83;;;7.07;;
45642;SDS011;31358;46.008;11.144;2023-06-22T12:52:51;35.50;;;6.93;;
45642;SDS011;31358;46.008;11.144;2023-06-22T12:55:17;15.35;;;6.50;;
45642;SDS011;31358;46.008;11.144;2023-06-22T12:57:42;19.27;;;6.68;;
45642;SDS011;31358;46.008;11.144;2023-06-22T13:00:08;22.65;;;7.75;;
45642;SDS011;31358;46.008;11.144;2023-06-22T13:02:35;17.70;;;5.88;;
45642;SDS011;31358;46.008;11.144;2023-06-22T13:05:02;21.35;;;7.18;;
45642;SDS011;31358;46.008;11.144;2023-06-22T13:07:30;14.63;;;6.05;;
45642;SDS011;31358;46.008;11.144;2023-06-22T13:09:55;21.35;;;6.72;;
45642;SDS011;31358;46.008;11.144;2023-06-22T13:12:21;17.25;;;6.18;;
45642;SDS011;31358;46.008;11.144;2023-06-22T13:14:47;19.63;;;6.70;;
45642;SDS011;31358;46.008;11.144;2023-06-22T13:17:13;19.95;;;6.40;;
45642;SDS011;31358;46.008;11.144;2023-06-22T13:19:39;16.70;;;6.20;;
45642;SDS011;31358;46.008;11.144;2023-06-22T13:22:05;19.80;;;6.93;;
45642;SDS011;31358;46.008;11.144;2023-06-22T13:24:50;16.35;;;6.07;;
45642;SDS011;31358;46.008;11.144;2023-06-22T13:27:16;15.25;;;6.38;;
45642;SDS011;31358;46.008;11.144;2023-06-22T13:29:41;22.55;;;6.15;;
45642;SDS011;31358;46.008;11.144;2023-06-22T13:32:07;13.73;;;5.72;;
45642;SDS011;31358;46.008;11.144;2023-06-22T13:34:33;14.15;;;5.45;;
45642;SDS011;31358;46.008;11.144;2023-06-22T13:36:58;14.27;;;6.30;;
45642;SDS011;31358;46.008;11.144;2023-06-22T13:39:24;14.35;;;6.65;;
45642;SDS011;31358;46.008;11.144;2023-06-22T13:41:50;18.67;;;6.68;;
45642;SDS011;31358;46.008;11.144;2023-06-22T13:44:15;15.65;;;7.13;;
45642;SDS011;31358;46.008;11.144;2023-06-22T13:46:41;19.05;;;6.03;;
45642;SDS011;31358;46.008;11.144;2023-06-22T13:49:07;12.00;;;5.88;;
45642;SDS011;31358;46.008;11.144;2023-06-22T13:51:33;17.98;;;6.80;;
45642;SDS011;31358;46.008;11.144;2023-06-22T13:53:58;21.35;;;7.75;;
45642;SDS011;31358;46.008;11.144;2023-06-22T13:56:24;17.35;;;6.57;;
45642;SDS011;31358;46.008;11.144;2023-06-22T13:58:50;21.35;;;7.80;;
45642;SDS011;31358;46.008;11.144;2023-06-22T14:01:15;13.52;;;6.97;;
45642;SDS011;31358;46.008;11.144;2023-06-22T14:03:41;19.27;;;6.82;;
45642;SDS011;31358;46.008;11.144;2023-06-22T14:06:07;15.45;;;6.93;;
45642;SDS011;31358;46.008;11.144;2023-06-22T14:08:35;18.42;;;7.38;;
45642;SDS011;31358;46.008;11.144;2023-06-22T14:11:02;23.63;;;7.82;;
45642;SDS011;31358;46.008;11.144;2023-06-22T14:13:28;22.73;;;7.18;;
45642;SDS011;31358;46.008;11.144;2023-06-22T14:15:53;12.38;;;6.55;;